createdAt,value
2023-04-03T00:09:41.097Z,-0.14
2023-04-03T00:24:40.772Z,-0.11
2023-04-03T00:39:40.912Z,-0.42
2023-04-03T00:54:41.020Z,-0.54
2023-04-03T01:09:41.257Z,-0.91
2023-04-03T01:24:41.307Z,-1.46
2023-04-03T01:39:41.350Z,-1.73
2023-04-03T01:54:41.439Z,-1.98
2023-04-03T02:09:41.973Z,-2.10
2023-04-03T02:24:42.038Z,-2.26
2023-04-03T02:39:41.750Z,-2.46
2023-04-03T02:54:41.852Z,-2.35
2023-04-03T03:09:41.984Z,-2.23
2023-04-03T03:24:42.164Z,-2.15
2023-04-03T03:39:42.178Z,-2.45
2023-04-03T03:54:42.257Z,-2.55
2023-04-03T04:09:42.396Z,-2.52
2023-04-03T04:24:42.475Z,-2.60
2023-04-03T04:39:42.582Z,-2.70
2023-04-03T04:54:42.691Z,-2.64
2023-04-03T05:09:43.264Z,-2.43
2023-04-03T05:24:43.293Z,-1.46
2023-04-03T05:39:43.099Z,-0.62
2023-04-03T05:54:43.089Z,-0.08
2023-04-03T06:09:43.608Z,0.80
2023-04-03T06:24:43.344Z,3.03
2023-04-03T06:39:43.387Z,4.59
2023-04-03T06:54:43.456Z,6.04
2023-04-03T07:09:45.196Z,6.58
2023-04-03T07:24:45.716Z,7.03
2023-04-03T07:39:45.779Z,7.16
2023-04-03T07:54:46.259Z,5.49
2023-04-03T08:09:47.382Z,4.67
2023-04-03T08:24:58.285Z,4.36
2023-04-03T08:39:52.675Z,4.69
2023-04-03T08:54:53.640Z,6.36
2023-04-03T09:09:53.923Z,6.49
2023-04-03T09:24:53.951Z,7.07
2023-04-03T09:39:54.625Z,8.12
2023-04-03T09:54:55.594Z,9.68
2023-04-03T10:09:55.327Z,8.16
2023-04-03T10:24:55.397Z,8.10
2023-04-03T10:39:55.520Z,9.56
2023-04-03T10:54:55.872Z,9.61
2023-04-03T11:09:55.741Z,9.56
2023-04-03T11:24:55.737Z,8.56
2023-04-03T11:39:56.741Z,8.12
2023-04-03T11:54:56.739Z,8.00
2023-04-03T12:09:57.440Z,7.58
2023-04-03T12:24:58.003Z,7.37
2023-04-03T12:39:58.231Z,7.02
2023-04-03T12:54:58.649Z,7.31
2023-04-03T13:09:58.460Z,8.53
2023-04-03T13:24:58.428Z,7.90
2023-04-03T13:39:58.905Z,7.30
2023-04-03T13:54:58.567Z,6.87
2023-04-03T14:09:59.150Z,6.52
2023-04-03T14:24:59.234Z,6.09
2023-04-03T14:39:58.977Z,6.59
2023-04-03T14:54:58.974Z,8.55
2023-04-03T15:09:59.572Z,7.24
2023-04-03T15:24:59.182Z,6.08
2023-04-03T15:40:00.304Z,5.57
2023-04-03T15:55:00.894Z,5.35
2023-04-03T16:10:01.128Z,5.21
2023-04-03T16:25:01.558Z,4.86
2023-04-03T16:40:01.654Z,4.42
2023-04-03T16:55:01.749Z,4.36
2023-04-03T17:10:02.837Z,4.23
2023-04-03T17:25:03.216Z,4.16
2023-04-03T17:40:03.278Z,3.91
2023-04-03T17:55:03.370Z,3.72
2023-04-03T18:10:03.456Z,3.58
2023-04-03T18:25:03.216Z,3.10
2023-04-03T18:40:03.229Z,2.77
2023-04-03T18:55:03.273Z,2.38
2023-04-03T19:10:03.472Z,2.21
2023-04-03T19:25:04.029Z,2.16
2023-04-03T19:40:04.586Z,2.36
2023-04-03T19:55:04.801Z,2.10
2023-04-03T20:10:04.960Z,2.02
2023-04-03T20:25:06.639Z,1.66
2023-04-03T20:40:06.995Z,1.26
2023-04-03T20:55:07.130Z,0.65
2023-04-03T21:10:07.263Z,0.15
2023-04-03T21:25:07.385Z,-0.15
2023-04-03T21:40:07.457Z,-0.18
2023-04-03T21:55:07.567Z,-0.36
2023-04-03T22:10:07.732Z,-0.85
2023-04-03T22:25:07.913Z,-1.13
2023-04-03T22:40:07.955Z,-1.43
2023-04-03T22:55:18.583Z,-1.77
2023-04-03T23:10:13.191Z,-2.09
2023-04-03T23:25:13.263Z,-2.15
2023-04-03T23:40:13.357Z,-2.13
2023-04-03T23:55:13.467Z,-2.61
